American Integrity — WDD2875 — position and weather

sailwx.info

Track history (hours):
 
Tides and Currents Weather Stations Pressure Air Temp Water Temp Dewpoint Dewpoint Depression Visibility Wind Speed Wind Dir Waves Ship Positions

American Integrity

Owner: American Steamship Company, Williamsville, NY. More information available from US FCC via Universal Licensing System and Coast Guard Vessel Documentation Center.

Last reported at 2014-Dec-20 16:17 UTC. Time now 2014-Dec-22 04:15 UTC.
Position N 46°35' W 084°45'.

; draft 8 m.

Type: Cargo ship. MMSI: 367120990.

Date/timePositionNaut miles runAvg speedWind from/ knotsBaromVisibWave heightAir tempDewpointWater temp
2014-Dec-20 16:17N 46°35' W 084°45'912.8
2014-Dec-20 15:33N 46°29' W 084°35'41 6.3
2014-Dec-20 09:08N 46°00' W 083°53'712.2
2014-Dec-20 08:32N 45°53' W 083°50'  
2014-Dec-14 15:08N 47°02' W 085°51'712.8
2014-Dec-14 14:33N 46°59' W 085°40'1312.8
2014-Dec-14 13:33N 46°54' W 085°23'1312.5
2014-Dec-14 12:32N 46°50' W 085°06'1211.7
2014-Dec-14 11:31N 46°43' W 084°52'1712.3
2014-Dec-14 10:11N 46°30' W 084°36'6 9.3
2014-Dec-14 09:33N 46°28' W 084°29'7 3.7
2014-Dec-14 07:33N 46°29' W 084°18'8 7.6
2014-Dec-14 06:31N 46°22' W 084°13'7 7.2
2014-Dec-14 05:30N 46°16' W 084°07'11 8.8
2014-Dec-14 04:18N 46°06' W 084°01'810.2
2014-Dec-14 03:32N 46°01' W 083°53'1511.6
2014-Dec-14 02:15N 45°47' W 083°45'912.3
2014-Dec-14 01:32N 45°44' W 083°33'1212.1
2014-Dec-14 00:30N 45°39' W 083°17'1112.0
2014-Dec-13 23:33N 45°34' W 083°02'  
2014-Dec-11 14:27N 45°45' W 083°38'1112.3
2014-Dec-11 13:33N 45°53' W 083°49'1010.5
2014-Dec-11 12:33N 46°02' W 083°56'9 8.7
2014-Dec-11 11:33N 46°09' W 084°03'8 7.9
2014-Dec-11 10:33N 46°15' W 084°11'5 5.5
2014-Dec-11 09:33N 46°20' W 084°13'8 8.0
2014-Dec-11 08:33N 46°28' W 084°17'4 3.7
2014-Dec-11 07:33N 46°30' W 084°21'1 0.7
2014-Dec-11 06:33N 46°30' W 084°22'7 6.9
2014-Dec-11 05:33N 46°27' W 084°31'10 9.6
2014-Dec-11 04:33N 46°34' W 084°41'1512.2
2014-Dec-11 03:19N 46°46' W 084°54'2112.0
2014-Dec-11 01:33N 46°56' W 085°21'1312.3
2014-Dec-11 00:31N 47°01' W 085°38'1212.2
2014-Dec-10 23:30N 47°06' W 085°55'  
Track history (hours):
 
Tides and Currents Weather Stations Pressure Air Temp Water Temp Dewpoint Dewpoint Depression Visibility Wind Speed Wind Dir Waves Ship Positions

American Integrity

Owner: American Steamship Company, Williamsville, NY. More information available from US FCC via Universal Licensing System and Coast Guard Vessel Documentation Center.

Last reported at 2014-Dec-20 16:17 UTC. Time now 2014-Dec-22 04:15 UTC.
Position N 46°35' W 084°45'.

; draft 8 m.

Type: Cargo ship. MMSI: 367120990.

Date/timePositionNaut miles runAvg speedWind from/ knotsBaromVisibWave heightAir tempDewpointWater temp
2014-Dec-20 16:17N 46°35' W 084°45'912.8
2014-Dec-20 15:33N 46°29' W 084°35'41 6.3
2014-Dec-20 09:08N 46°00' W 083°53'712.2
2014-Dec-20 08:32N 45°53' W 083°50'  
2014-Dec-14 15:08N 47°02' W 085°51'712.8
2014-Dec-14 14:33N 46°59' W 085°40'1312.8
2014-Dec-14 13:33N 46°54' W 085°23'1312.5
2014-Dec-14 12:32N 46°50' W 085°06'1211.7
2014-Dec-14 11:31N 46°43' W 084°52'1712.3
2014-Dec-14 10:11N 46°30' W 084°36'6 9.3
2014-Dec-14 09:33N 46°28' W 084°29'7 3.7
2014-Dec-14 07:33N 46°29' W 084°18'8 7.6
2014-Dec-14 06:31N 46°22' W 084°13'7 7.2
2014-Dec-14 05:30N 46°16' W 084°07'11 8.8
2014-Dec-14 04:18N 46°06' W 084°01'810.2
2014-Dec-14 03:32N 46°01' W 083°53'1511.6
2014-Dec-14 02:15N 45°47' W 083°45'912.3
2014-Dec-14 01:32N 45°44' W 083°33'1212.1
2014-Dec-14 00:30N 45°39' W 083°17'1112.0
2014-Dec-13 23:33N 45°34' W 083°02'  
2014-Dec-11 14:27N 45°45' W 083°38'1112.3
2014-Dec-11 13:33N 45°53' W 083°49'1010.5
2014-Dec-11 12:33N 46°02' W 083°56'9 8.7
2014-Dec-11 11:33N 46°09' W 084°03'8 7.9
2014-Dec-11 10:33N 46°15' W 084°11'5 5.5
2014-Dec-11 09:33N 46°20' W 084°13'8 8.0
2014-Dec-11 08:33N 46°28' W 084°17'4 3.7
2014-Dec-11 07:33N 46°30' W 084°21'1 0.7
2014-Dec-11 06:33N 46°30' W 084°22'7 6.9
2014-Dec-11 05:33N 46°27' W 084°31'10 9.6
2014-Dec-11 04:33N 46°34' W 084°41'1512.2
2014-Dec-11 03:19N 46°46' W 084°54'2112.0
2014-Dec-11 01:33N 46°56' W 085°21'1312.3
2014-Dec-11 00:31N 47°01' W 085°38'1212.2
2014-Dec-10 23:30N 47°06' W 085°55'  

Dump ship's entire track history